createdAt,value
2022-11-16T00:02:07.223Z,8.30
2022-11-16T00:04:54.172Z,8.30
2022-11-16T00:07:41.153Z,8.30
2022-11-16T00:10:28.385Z,8.30
2022-11-16T00:13:17.122Z,8.30
2022-11-16T00:16:05.600Z,8.30
2022-11-16T00:18:57.423Z,8.30
2022-11-16T00:21:44.696Z,8.30
2022-11-16T00:24:31.494Z,8.30
2022-11-16T00:27:18.496Z,8.30
2022-11-16T00:30:08.059Z,8.30
2022-11-16T00:32:55.007Z,8.30
2022-11-16T00:35:42.064Z,8.40
2022-11-16T00:38:29.344Z,8.40
2022-11-16T00:41:16.377Z,8.40
2022-11-16T00:44:03.267Z,8.40
2022-11-16T00:46:52.048Z,8.40
2022-11-16T00:49:39.831Z,8.50
2022-11-16T00:52:27.021Z,8.50
2022-11-16T00:55:14.857Z,8.50
2022-11-16T00:58:01.810Z,8.50
2022-11-16T01:00:49.806Z,8.50
2022-11-16T01:03:38.694Z,8.50
2022-11-16T01:06:25.971Z,8.50
2022-11-16T01:09:13.329Z,8.40
2022-11-16T01:12:14.742Z,8.40
2022-11-16T01:15:01.647Z,8.40
2022-11-16T01:17:49.433Z,8.40
2022-11-16T01:20:37.670Z,8.40
2022-11-16T01:23:24.983Z,8.40
2022-11-16T01:26:12.204Z,8.30
2022-11-16T01:29:01.423Z,8.40
2022-11-16T01:31:52.794Z,8.30
2022-11-16T01:34:40.135Z,8.30
2022-11-16T01:37:41.592Z,8.30
2022-11-16T01:40:29.291Z,8.30
2022-11-16T01:43:19.194Z,8.30
2022-11-16T01:46:08.236Z,8.30
2022-11-16T01:49:01.736Z,8.40
2022-11-16T01:52:00.944Z,8.40
2022-11-16T01:54:54.973Z,8.40
2022-11-16T01:57:44.817Z,8.50
2022-11-16T02:00:33.120Z,8.40
2022-11-16T02:03:39.601Z,8.50
2022-11-16T02:06:40.192Z,8.50
2022-11-16T02:09:55.162Z,8.60
2022-11-16T02:13:00.884Z,8.60
2022-11-16T02:16:07.728Z,8.70
2022-11-16T02:19:10.069Z,8.70
2022-11-16T02:22:07.801Z,8.70
2022-11-16T02:25:01.694Z,8.70
2022-11-16T02:28:11.929Z,8.70
2022-11-16T02:31:05.067Z,8.70
2022-11-16T02:33:57.241Z,8.70
2022-11-16T02:36:48.139Z,8.70
2022-11-16T02:39:38.369Z,8.70
2022-11-16T02:42:32.407Z,8.80
2022-11-16T02:45:23.731Z,8.80
2022-11-16T02:48:19.017Z,8.80
2022-11-16T02:51:07.985Z,8.70
2022-11-16T02:54:04.024Z,8.70
2022-11-16T02:56:57.673Z,8.70
2022-11-16T02:59:53.493Z,8.70
2022-11-16T03:02:49.041Z,8.70
2022-11-16T03:05:45.663Z,8.70
2022-11-16T03:08:36.326Z,8.60
2022-11-16T03:11:38.914Z,8.70
2022-11-16T03:14:33.482Z,8.70
2022-11-16T03:17:23.800Z,8.80
2022-11-16T03:20:14.983Z,8.80
2022-11-16T03:23:07.645Z,8.80
2022-11-16T03:25:58.238Z,8.70
2022-11-16T03:28:53.249Z,8.70
2022-11-16T03:31:46.316Z,8.70
2022-11-16T03:34:40.189Z,8.70
2022-11-16T03:37:28.769Z,8.70
2022-11-16T03:40:21.903Z,8.70
2022-11-16T03:43:11.508Z,8.70
2022-11-16T03:46:00.365Z,8.70
2022-11-16T03:48:48.101Z,8.70
2022-11-16T03:51:43.507Z,8.70
2022-11-16T03:54:30.809Z,8.80
2022-11-16T03:57:19.063Z,8.80
2022-11-16T04:00:13.588Z,8.80
2022-11-16T04:03:00.528Z,8.80
2022-11-16T04:06:03.251Z,8.90
2022-11-16T04:09:07.870Z,8.90
2022-11-16T04:11:56.730Z,8.90
2022-11-16T04:15:03.557Z,8.90
2022-11-16T04:18:10.940Z,8.90
2022-11-16T04:21:15.910Z,8.90
2022-11-16T04:24:13.843Z,8.90
2022-11-16T04:27:13.870Z,8.90
2022-11-16T04:30:03.755Z,8.90
2022-11-16T04:33:07.385Z,8.90
2022-11-16T04:36:15.407Z,8.90
2022-11-16T04:39:05.654Z,8.90
2022-11-16T04:42:10.172Z,8.90
2022-11-16T04:45:14.846Z,8.90
2022-11-16T04:48:07.897Z,8.80
2022-11-16T04:50:55.705Z,8.80
2022-11-16T04:53:42.917Z,8.80
2022-11-16T04:56:40.524Z,8.80
2022-11-16T04:59:28.246Z,8.80
2022-11-16T05:02:15.486Z,8.80
2022-11-16T05:05:11.545Z,8.80
2022-11-16T05:08:01.275Z,8.70
2022-11-16T05:10:52.730Z,8.70
2022-11-16T05:13:40.256Z,8.70
2022-11-16T05:16:28.197Z,8.80
2022-11-16T05:19:29.183Z,8.80
2022-11-16T05:22:19.094Z,8.70
2022-11-16T05:25:07.253Z,8.60
2022-11-16T05:27:54.205Z,8.60
2022-11-16T05:30:41.091Z,8.70
2022-11-16T05:33:28.252Z,8.70
2022-11-16T05:36:15.381Z,8.70
2022-11-16T05:39:04.950Z,8.70
2022-11-16T05:41:56.154Z,8.80
2022-11-16T05:44:43.121Z,8.80
2022-11-16T05:47:30.103Z,8.80
2022-11-16T05:50:18.541Z,8.80
2022-11-16T05:53:19.725Z,8.80
2022-11-16T05:56:10.371Z,8.80
2022-11-16T05:59:00.073Z,8.80
2022-11-16T06:01:48.083Z,8.90
2022-11-16T06:04:35.874Z,8.90
2022-11-16T06:07:23.499Z,8.90
2022-11-16T06:10:10.944Z,8.90
2022-11-16T06:13:00.583Z,8.90
2022-11-16T06:15:54.373Z,8.90
2022-11-16T06:18:44.628Z,8.90
2022-11-16T06:21:34.277Z,8.90
2022-11-16T06:24:24.639Z,8.90
2022-11-16T06:27:12.239Z,8.90
2022-11-16T06:30:02.313Z,8.90
2022-11-16T06:32:49.819Z,8.90
2022-11-16T06:35:36.797Z,8.90
2022-11-16T06:38:25.259Z,8.90
2022-11-16T06:41:14.338Z,8.90
2022-11-16T06:44:06.067Z,8.90
2022-11-16T06:46:58.090Z,9.00
2022-11-16T06:49:47.500Z,9.00
2022-11-16T06:52:40.921Z,9.00
2022-11-16T06:55:28.678Z,9.00
2022-11-16T06:58:15.892Z,9.00
2022-11-16T07:01:08.290Z,9.00
2022-11-16T07:03:59.682Z,9.10
2022-11-16T07:06:47.721Z,9.10
2022-11-16T07:09:36.620Z,9.10
2022-11-16T07:12:24.335Z,9.10
2022-11-16T07:15:12.134Z,9.10
2022-11-16T07:18:06.152Z,9.20
2022-11-16T07:20:56.203Z,9.20
2022-11-16T07:23:43.943Z,9.20
2022-11-16T07:26:35.642Z,9.20
2022-11-16T07:29:29.922Z,9.30
2022-11-16T07:32:40.050Z,9.30
2022-11-16T07:35:33.157Z,9.30
2022-11-16T07:38:21.630Z,9.30
2022-11-16T07:41:10.631Z,9.40
2022-11-16T07:44:07.367Z,9.40
2022-11-16T07:47:02.234Z,9.40
2022-11-16T07:49:52.180Z,9.50
2022-11-16T07:52:41.368Z,9.50
2022-11-16T07:55:38.759Z,9.50
2022-11-16T07:58:27.166Z,9.60
2022-11-16T08:01:18.136Z,9.60
2022-11-16T08:04:08.188Z,9.60
2022-11-16T08:06:56.135Z,9.70
2022-11-16T08:09:44.347Z,9.70
2022-11-16T08:12:36.746Z,9.70
2022-11-16T08:15:25.602Z,9.70
2022-11-16T08:18:13.295Z,9.80
2022-11-16T08:21:02.138Z,9.80
2022-11-16T08:23:56.811Z,9.80
2022-11-16T08:26:46.737Z,9.90
2022-11-16T08:29:36.842Z,9.90
2022-11-16T08:32:29.901Z,9.90
2022-11-16T08:35:17.864Z,10.00
2022-11-16T08:38:06.322Z,10.00
2022-11-16T08:40:57.512Z,10.00
2022-11-16T08:43:47.503Z,10.10
2022-11-16T08:46:37.005Z,10.10
2022-11-16T08:49:35.770Z,10.20
2022-11-16T08:52:23.655Z,10.20
2022-11-16T08:55:14.132Z,10.20
2022-11-16T08:58:03.784Z,10.20
2022-11-16T09:00:51.505Z,10.30
2022-11-16T09:03:41.027Z,10.40
2022-11-16T09:06:29.526Z,10.40
2022-11-16T09:09:17.345Z,10.40
2022-11-16T09:12:04.700Z,10.50
2022-11-16T09:14:52.546Z,10.50
2022-11-16T09:17:40.326Z,10.60
2022-11-16T09:20:29.561Z,10.60
2022-11-16T09:23:22.263Z,10.70
2022-11-16T09:26:14.191Z,10.70
2022-11-16T09:29:04.603Z,10.70
2022-11-16T09:31:52.411Z,10.80
2022-11-16T09:34:39.732Z,10.80
2022-11-16T09:37:28.602Z,10.90
2022-11-16T09:40:16.436Z,10.90
2022-11-16T09:43:16.448Z,10.90
2022-11-16T09:46:17.749Z,11.00
2022-11-16T09:49:17.529Z,11.00
2022-11-16T09:52:11.386Z,11.10
2022-11-16T09:55:03.804Z,11.10
2022-11-16T09:57:55.200Z,11.10
2022-11-16T10:00:50.255Z,11.10
2022-11-16T10:03:44.174Z,11.20
2022-11-16T10:06:46.006Z,11.20
2022-11-16T10:09:33.985Z,11.20
2022-11-16T10:12:33.065Z,11.20
2022-11-16T10:15:35.658Z,11.20
2022-11-16T10:18:36.002Z,11.30
2022-11-16T10:21:37.692Z,11.30
2022-11-16T10:24:43.449Z,11.30
2022-11-16T10:27:30.590Z,11.30
2022-11-16T10:30:21.313Z,11.30
2022-11-16T10:33:13.803Z,11.30
2022-11-16T10:36:03.608Z,11.30
2022-11-16T10:38:50.950Z,11.30
2022-11-16T10:41:44.081Z,11.30
2022-11-16T10:44:39.426Z,11.40
2022-11-16T10:47:38.773Z,11.40
2022-11-16T10:50:36.304Z,11.40
2022-11-16T10:53:35.157Z,11.40
2022-11-16T10:56:27.017Z,11.40
2022-11-16T10:59:15.971Z,11.50
2022-11-16T11:02:34.995Z,11.50
2022-11-16T11:05:23.026Z,11.60
2022-11-16T11:08:12.915Z,11.60
2022-11-16T11:11:23.253Z,11.60
2022-11-16T11:14:13.467Z,11.70
2022-11-16T11:17:14.917Z,11.70
2022-11-16T11:20:06.870Z,11.80
2022-11-16T11:22:57.439Z,11.80
2022-11-16T11:25:53.795Z,11.80
2022-11-16T11:28:50.779Z,11.90
2022-11-16T11:31:44.564Z,11.90
2022-11-16T11:34:40.637Z,11.90
2022-11-16T11:37:32.935Z,11.80
2022-11-16T11:40:23.068Z,11.90
2022-11-16T11:43:23.949Z,12.00
2022-11-16T11:46:17.141Z,12.00
2022-11-16T11:49:08.040Z,12.10
2022-11-16T11:52:05.248Z,12.10
2022-11-16T11:55:00.369Z,12.10
2022-11-16T11:57:55.345Z,12.20
2022-11-16T12:01:01.142Z,12.20
2022-11-16T12:04:10.908Z,12.30
2022-11-16T12:07:16.545Z,12.30
2022-11-16T12:10:18.720Z,12.40
2022-11-16T12:13:28.162Z,12.50
2022-11-16T12:16:25.421Z,12.50
2022-11-16T12:19:33.958Z,12.50
2022-11-16T12:22:43.768Z,12.60
2022-11-16T12:25:45.278Z,12.50
2022-11-16T12:28:51.856Z,12.60
2022-11-16T12:32:02.328Z,12.60
2022-11-16T12:35:06.047Z,12.60
2022-11-16T12:38:02.933Z,12.50
2022-11-16T12:41:10.396Z,12.50
2022-11-16T12:44:03.583Z,12.60
2022-11-16T12:47:06.051Z,12.50
2022-11-16T12:50:10.690Z,12.50
2022-11-16T12:53:20.393Z,12.50
2022-11-16T12:56:28.014Z,12.60
2022-11-16T12:59:31.688Z,12.50
2022-11-16T13:02:40.731Z,12.60
2022-11-16T13:05:50.130Z,12.60
2022-11-16T13:08:53.822Z,12.70
2022-11-16T13:11:50.565Z,12.70
2022-11-16T13:14:48.430Z,12.80
2022-11-16T13:17:44.544Z,12.90
2022-11-16T13:20:43.797Z,13.00
2022-11-16T13:23:48.873Z,13.20
2022-11-16T13:26:41.038Z,13.30
2022-11-16T13:29:40.762Z,13.30
2022-11-16T13:32:49.904Z,13.50
2022-11-16T13:35:42.281Z,13.60
2022-11-16T13:38:54.411Z,13.70
2022-11-16T13:41:42.847Z,13.70
2022-11-16T13:44:37.223Z,13.70
2022-11-16T13:47:29.059Z,13.80
2022-11-16T13:50:23.993Z,13.70
2022-11-16T13:54:10.909Z,13.80
2022-11-16T13:56:29.227Z,13.80
2022-11-16T13:59:26.461Z,13.80
2022-11-16T14:02:33.643Z,13.80
2022-11-16T14:05:46.702Z,13.70
2022-11-16T14:08:53.687Z,13.70
2022-11-16T14:11:43.944Z,13.70
2022-11-16T14:15:04.020Z,13.60
2022-11-16T14:18:00.645Z,13.60
2022-11-16T14:21:08.333Z,13.60
2022-11-16T14:24:20.144Z,13.60
2022-11-16T14:27:18.686Z,13.50
2022-11-16T14:30:19.384Z,13.50
2022-11-16T14:33:36.574Z,13.40
2022-11-16T14:36:47.259Z,13.40
2022-11-16T14:39:43.135Z,13.30
2022-11-16T14:42:54.409Z,13.20
2022-11-16T14:45:56.255Z,13.20
2022-11-16T14:48:53.248Z,13.20
2022-11-16T14:51:47.358Z,13.10
2022-11-16T14:54:42.694Z,13.10
2022-11-16T14:57:32.975Z,13.00
2022-11-16T15:00:27.266Z,13.00
2022-11-16T15:03:27.720Z,13.10
2022-11-16T15:06:32.412Z,13.10
2022-11-16T15:09:41.461Z,13.00
2022-11-16T15:12:54.552Z,13.00
2022-11-16T15:15:49.316Z,12.90
2022-11-16T15:18:40.736Z,12.80
2022-11-16T15:21:33.634Z,12.80
2022-11-16T15:24:31.859Z,12.80
2022-11-16T15:27:38.695Z,12.70
2022-11-16T15:30:31.607Z,12.70
2022-11-16T15:33:25.985Z,12.60
2022-11-16T15:36:35.727Z,12.50
2022-11-16T15:39:30.456Z,12.50
2022-11-16T15:42:20.795Z,12.40
2022-11-16T15:45:15.958Z,12.40
2022-11-16T15:48:06.329Z,12.30
2022-11-16T15:51:07.343Z,12.20
2022-11-16T15:54:16.683Z,12.10
2022-11-16T15:57:11.801Z,12.10
2022-11-16T16:00:03.675Z,11.90
2022-11-16T16:02:56.552Z,11.90
2022-11-16T16:05:47.125Z,11.80
2022-11-16T16:08:40.858Z,11.70
2022-11-16T16:11:33.773Z,11.60
2022-11-16T16:14:29.133Z,11.50
2022-11-16T16:17:28.292Z,11.50
2022-11-16T16:20:21.026Z,11.40
2022-11-16T16:23:15.257Z,11.20
2022-11-16T16:26:07.584Z,11.10
2022-11-16T16:29:00.570Z,11.10
2022-11-16T16:31:51.697Z,11.00
2022-11-16T16:34:42.506Z,10.90
2022-11-16T16:37:34.360Z,10.80
2022-11-16T16:40:26.400Z,10.80
2022-11-16T16:43:16.502Z,10.60
2022-11-16T16:46:09.569Z,10.50
2022-11-16T16:49:02.518Z,10.50
2022-11-16T16:51:52.801Z,10.30
2022-11-16T16:54:44.637Z,10.30
2022-11-16T16:57:34.512Z,10.30
2022-11-16T17:00:25.641Z,10.20
2022-11-16T17:03:20.512Z,10.10
2022-11-16T17:06:10.251Z,10.10
2022-11-16T17:09:00.855Z,10.00
2022-11-16T17:11:50.968Z,9.90
2022-11-16T17:14:41.989Z,9.90
2022-11-16T17:17:32.732Z,9.80
2022-11-16T17:20:24.968Z,9.80
2022-11-16T17:23:16.696Z,9.80
2022-11-16T17:26:10.407Z,9.70
2022-11-16T17:29:02.954Z,9.60
2022-11-16T17:31:54.034Z,9.60
2022-11-16T17:34:44.827Z,9.50
2022-11-16T17:37:35.428Z,9.50
2022-11-16T17:40:25.996Z,9.40
2022-11-16T17:43:16.286Z,9.40
2022-11-16T17:46:09.182Z,9.30
2022-11-16T17:49:00.143Z,9.30
2022-11-16T17:51:50.671Z,9.20
2022-11-16T17:54:42.724Z,9.10
2022-11-16T17:57:33.896Z,9.10
2022-11-16T18:00:25.441Z,9.00
2022-11-16T18:03:14.893Z,9.00
2022-11-16T18:06:08.115Z,8.90
2022-11-16T18:09:00.364Z,8.90
2022-11-16T18:11:53.332Z,8.80
2022-11-16T18:14:59.927Z,8.80
2022-11-16T18:17:55.940Z,8.80
2022-11-16T18:20:51.974Z,8.80
2022-11-16T18:23:43.243Z,8.70
2022-11-16T18:26:33.309Z,8.70
2022-11-16T18:29:26.305Z,8.60
2022-11-16T18:32:15.371Z,8.60
2022-11-16T18:35:11.021Z,8.60
2022-11-16T18:38:03.190Z,8.50
2022-11-16T18:41:07.730Z,8.40
2022-11-16T18:43:59.886Z,8.40
2022-11-16T18:46:52.107Z,8.30
2022-11-16T18:49:42.773Z,8.30
2022-11-16T18:52:35.432Z,8.20
2022-11-16T18:55:25.707Z,8.20
2022-11-16T18:58:43.409Z,8.20
2022-11-16T19:01:28.789Z,8.20
2022-11-16T19:04:22.161Z,8.10
2022-11-16T19:07:14.731Z,8.10
2022-11-16T19:10:05.994Z,8.00
2022-11-16T19:12:57.048Z,8.00
2022-11-16T19:15:47.717Z,8.00
2022-11-16T19:18:40.716Z,7.90
2022-11-16T19:21:35.678Z,7.90
2022-11-16T19:24:27.291Z,7.80
2022-11-16T19:27:18.904Z,7.80
2022-11-16T19:30:11.906Z,7.70
2022-11-16T19:33:07.382Z,7.70
2022-11-16T19:35:57.757Z,7.70
2022-11-16T19:38:52.016Z,7.70
2022-11-16T19:41:43.505Z,7.70
2022-11-16T19:44:33.234Z,7.70
2022-11-16T19:47:26.773Z,7.70
2022-11-16T19:50:16.899Z,7.70
2022-11-16T19:53:08.985Z,7.60
2022-11-16T19:56:01.796Z,7.60
2022-11-16T19:58:52.207Z,7.60
2022-11-16T20:01:43.197Z,7.60
2022-11-16T20:04:35.317Z,7.60
2022-11-16T20:07:26.173Z,7.50
2022-11-16T20:10:16.606Z,7.50
2022-11-16T20:13:08.344Z,7.40
2022-11-16T20:15:57.449Z,7.40
2022-11-16T20:18:49.416Z,7.40
2022-11-16T20:21:42.187Z,7.30
2022-11-16T20:24:32.739Z,7.30
2022-11-16T20:27:23.592Z,7.20
2022-11-16T20:30:17.618Z,7.20
2022-11-16T20:33:08.869Z,7.20
2022-11-16T20:36:04.714Z,7.10
2022-11-16T20:38:55.403Z,7.10
2022-11-16T20:41:47.097Z,7.10
2022-11-16T20:44:43.793Z,7.00
2022-11-16T20:47:36.631Z,7.00
2022-11-16T20:50:27.187Z,7.00
2022-11-16T20:53:17.623Z,6.90
2022-11-16T20:56:09.683Z,6.90
2022-11-16T20:59:04.174Z,6.90
2022-11-16T21:01:56.072Z,6.80
2022-11-16T21:04:47.312Z,6.80
2022-11-16T21:07:38.859Z,6.80
2022-11-16T21:10:32.982Z,6.80
2022-11-16T21:13:37.744Z,6.80
2022-11-16T21:16:27.071Z,6.80
2022-11-16T21:19:15.088Z,6.70
2022-11-16T21:22:06.247Z,6.70
2022-11-16T21:24:55.312Z,6.70
2022-11-16T21:27:45.854Z,6.70
2022-11-16T21:30:36.017Z,6.70
2022-11-16T21:33:27.626Z,6.70
2022-11-16T21:36:21.632Z,6.70
2022-11-16T21:39:14.921Z,6.60
2022-11-16T21:42:05.356Z,6.60
2022-11-16T21:44:55.692Z,6.60
2022-11-16T21:47:46.390Z,6.50
2022-11-16T21:50:38.377Z,6.50
2022-11-16T21:53:27.381Z,6.50
2022-11-16T21:56:22.354Z,6.50
2022-11-16T21:59:12.745Z,6.50
2022-11-16T22:02:03.635Z,6.50
2022-11-16T22:05:06.610Z,6.50
2022-11-16T22:07:54.647Z,6.40
2022-11-16T22:10:43.696Z,6.40
2022-11-16T22:13:36.348Z,6.40
2022-11-16T22:16:27.148Z,6.40
2022-11-16T22:19:17.381Z,6.40
2022-11-16T22:22:07.320Z,6.40
2022-11-16T22:24:57.555Z,6.30
2022-11-16T22:28:19.122Z,6.30
2022-11-16T22:31:08.009Z,6.30
2022-11-16T22:33:57.785Z,6.30
2022-11-16T22:36:47.273Z,6.30
2022-11-16T22:39:37.641Z,6.20
2022-11-16T22:42:27.237Z,6.20
2022-11-16T22:45:17.243Z,6.20
2022-11-16T22:48:08.796Z,6.20
2022-11-16T22:51:07.280Z,6.20
2022-11-16T22:53:57.704Z,6.10
2022-11-16T22:56:47.429Z,6.10
2022-11-16T22:59:39.839Z,6.10
2022-11-16T23:02:32.257Z,6.10
2022-11-16T23:05:22.865Z,6.10
2022-11-16T23:08:11.965Z,6.10
2022-11-16T23:11:16.512Z,6.10
2022-11-16T23:14:23.430Z,6.10
2022-11-16T23:17:11.336Z,6.00
2022-11-16T23:20:17.905Z,6.00
2022-11-16T23:23:35.458Z,6.00
2022-11-16T23:26:43.971Z,6.00
2022-11-16T23:29:32.722Z,5.90
2022-11-16T23:32:20.369Z,5.90
2022-11-16T23:35:08.111Z,5.80
2022-11-16T23:37:59.852Z,5.80
2022-11-16T23:40:49.762Z,5.80
2022-11-16T23:43:52.228Z,5.80
2022-11-16T23:46:40.489Z,5.80
2022-11-16T23:49:30.792Z,5.70
2022-11-16T23:52:19.627Z,5.70
2022-11-16T23:55:10.093Z,5.70
2022-11-16T23:58:00.138Z,5.70
